Terminal Aerodrome Forecast
Issued by NWS Tuscon, AZ

Home | Current Version | Previous Version | Text Only | Print | Product List | Glossary On
Versions: 1 2 3 4 5 6 7 8 9 10 11 12 13 14 15 16 17
000
FTUS45 KTWC 192000 CCA
TAFDUG
TAF COR
KDUG 192017Z 1920/2018 34012KT P6SM VCTS BKN060CB BKN100
      TEMPO 1920/1922 VRB15G25KT 4SM TSRA BKN040CB
     FM200300 35008KT P6SM VCSH SCT070 BKN100
     FM200600 01005KT P6SM SCT060=

USA.gov is the U.S. government's official web portal to all federal, state and local government web resources and services.